createdAt,value
2022-10-01T00:01:50.138Z,97669.00
2022-10-01T00:04:17.870Z,97674.00
2022-10-01T00:06:45.758Z,97671.00
2022-10-01T00:09:13.790Z,97674.00
2022-10-01T00:11:42.680Z,97673.00
2022-10-01T00:14:11.799Z,97680.00
2022-10-01T00:16:39.704Z,97668.00
2022-10-01T00:19:07.487Z,97664.00
2022-10-01T00:21:35.587Z,97675.00
2022-10-01T00:24:07.080Z,97679.00
2022-10-01T00:26:37.611Z,97681.00
2022-10-01T00:29:08.228Z,97676.00
2022-10-01T00:31:37.848Z,97679.00
2022-10-01T00:34:06.579Z,97674.00
2022-10-01T00:36:35.277Z,97680.00
2022-10-01T00:39:03.488Z,97676.00
2022-10-01T00:41:35.123Z,97676.00
2022-10-01T00:44:35.933Z,97663.00
2022-10-01T00:47:17.368Z,97670.00
2022-10-01T00:49:47.201Z,97674.00
2022-10-01T00:52:21.584Z,97669.00
2022-10-01T00:54:54.641Z,97674.00
2022-10-01T00:57:26.486Z,97674.00
2022-10-01T00:59:59.087Z,97678.00
2022-10-01T01:02:27.002Z,97682.00
2022-10-01T01:04:54.958Z,97667.00
2022-10-01T01:07:23.581Z,97657.00
2022-10-01T01:09:54.727Z,97662.00
2022-10-01T01:12:54.905Z,97663.00
2022-10-01T01:15:36.141Z,97654.00
2022-10-01T01:18:10.810Z,97657.00
2022-10-01T01:21:13.085Z,97664.00
2022-10-01T01:24:17.885Z,97656.00
2022-10-01T01:27:07.126Z,97652.00
2022-10-01T01:29:43.250Z,97651.00
2022-10-01T01:32:20.504Z,97636.00
2022-10-01T01:34:52.766Z,97645.00
2022-10-01T01:37:27.143Z,97648.00
2022-10-01T01:39:58.061Z,97634.00
2022-10-01T01:42:31.046Z,97641.00
2022-10-01T01:45:03.458Z,97642.00
2022-10-01T01:47:34.282Z,97636.00
2022-10-01T01:50:04.148Z,97633.00
2022-10-01T01:52:31.980Z,97641.00
2022-10-01T01:54:59.848Z,97629.00
2022-10-01T01:57:27.647Z,97628.00
2022-10-01T01:59:55.836Z,97630.00
2022-10-01T02:02:33.104Z,97619.00
2022-10-01T02:05:04.791Z,97619.00
2022-10-01T02:07:54.661Z,97626.00
2022-10-01T02:10:41.445Z,97622.00
2022-10-01T02:13:25.453Z,97622.00
2022-10-01T02:16:04.581Z,97616.00
2022-10-01T02:18:50.505Z,97614.00
2022-10-01T02:21:24.271Z,97612.00
2022-10-01T02:24:00.328Z,97616.00
2022-10-01T02:26:32.295Z,97617.00
2022-10-01T02:29:08.078Z,97616.00
2022-10-01T02:31:37.150Z,97601.00
2022-10-01T02:34:12.736Z,97605.00
2022-10-01T02:36:42.590Z,97597.00
2022-10-01T02:39:14.387Z,97600.00
2022-10-01T02:41:46.684Z,97603.00
2022-10-01T02:44:22.934Z,97596.00
2022-10-01T02:46:58.666Z,97597.00
2022-10-01T02:49:30.905Z,97593.00
2022-10-01T02:52:09.063Z,97592.00
2022-10-01T02:54:45.398Z,97590.00
2022-10-01T02:57:28.003Z,97592.00
2022-10-01T02:59:59.136Z,97597.00
2022-10-01T03:02:29.075Z,97597.00
2022-10-01T03:04:58.712Z,97600.00
2022-10-01T03:07:27.997Z,97597.00
2022-10-01T03:09:55.829Z,97593.00
2022-10-01T03:12:25.095Z,97585.00
2022-10-01T03:14:53.151Z,97592.00
2022-10-01T03:17:21.332Z,97585.00
2022-10-01T03:19:49.234Z,97579.00
2022-10-01T03:22:22.546Z,97580.00
2022-10-01T03:24:50.597Z,97580.00
2022-10-01T03:27:18.575Z,97586.00
2022-10-01T03:29:46.842Z,97573.00
2022-10-01T03:32:15.573Z,97569.00
2022-10-01T03:34:43.813Z,97570.00
2022-10-01T03:37:11.694Z,97570.00
2022-10-01T03:39:40.805Z,97576.00
2022-10-01T03:42:08.524Z,97575.00
2022-10-01T03:44:36.275Z,97578.00
2022-10-01T03:47:04.085Z,97578.00
2022-10-01T03:49:31.842Z,97573.00
2022-10-01T03:51:59.607Z,97570.00
2022-10-01T03:54:27.332Z,97559.00
2022-10-01T03:56:56.375Z,97560.00
2022-10-01T03:59:25.060Z,97554.00
2022-10-01T04:01:52.888Z,97554.00
2022-10-01T04:04:20.966Z,97553.00
2022-10-01T04:06:48.750Z,97550.00
2022-10-01T04:09:16.486Z,97549.00
2022-10-01T04:11:44.618Z,97545.00
2022-10-01T04:14:14.165Z,97539.00
2022-10-01T04:16:41.922Z,97538.00
2022-10-01T04:19:09.622Z,97536.00
2022-10-01T04:21:39.046Z,97539.00
2022-10-01T04:24:07.269Z,97536.00
2022-10-01T04:26:35.068Z,97529.00
2022-10-01T04:29:02.826Z,97538.00
2022-10-01T04:31:35.337Z,97537.00
2022-10-01T04:34:04.010Z,97537.00
2022-10-01T04:36:32.086Z,97540.00
2022-10-01T04:39:02.443Z,97544.00
2022-10-01T04:41:31.757Z,97540.00
2022-10-01T04:44:00.640Z,97533.00
2022-10-01T04:46:31.006Z,97530.00
2022-10-01T04:48:59.102Z,97526.00
2022-10-01T04:51:27.112Z,97528.00
2022-10-01T04:53:55.544Z,97530.00
2022-10-01T04:56:23.312Z,97533.00
2022-10-01T04:58:51.057Z,97544.00
2022-10-01T05:01:18.863Z,97537.00
2022-10-01T05:03:48.250Z,97546.00
2022-10-01T05:06:15.997Z,97550.00
2022-10-01T05:08:43.711Z,97544.00
2022-10-01T05:11:11.415Z,97544.00
2022-10-01T05:13:39.123Z,97549.00
2022-10-01T05:16:07.610Z,97546.00
2022-10-01T05:18:35.553Z,97544.00
2022-10-01T05:21:08.236Z,97541.00
2022-10-01T05:23:35.963Z,97544.00
2022-10-01T05:26:05.589Z,97540.00
2022-10-01T05:28:33.808Z,97539.00
2022-10-01T05:31:02.440Z,97549.00
2022-10-01T05:33:32.011Z,97545.00
2022-10-01T05:35:59.789Z,97540.00
2022-10-01T05:38:28.893Z,97544.00
2022-10-01T05:40:56.658Z,97548.00
2022-10-01T05:43:25.495Z,97544.00
2022-10-01T05:45:53.278Z,97552.00
2022-10-01T05:48:21.787Z,97550.00
2022-10-01T05:50:49.978Z,97546.00
2022-10-01T05:53:17.712Z,97548.00
2022-10-01T05:55:46.829Z,97551.00
2022-10-01T05:58:15.688Z,97539.00
2022-10-01T06:00:43.891Z,97542.00
2022-10-01T06:03:13.653Z,97540.00
2022-10-01T06:05:41.625Z,97534.00
2022-10-01T06:08:10.629Z,97529.00
2022-10-01T06:10:39.035Z,97530.00
2022-10-01T06:13:08.587Z,97530.00
2022-10-01T06:15:39.222Z,97531.00
2022-10-01T06:18:09.044Z,97526.00
2022-10-01T06:20:37.232Z,97526.00
2022-10-01T06:23:09.554Z,97524.00
2022-10-01T06:25:38.382Z,97517.00
2022-10-01T06:28:10.602Z,97519.00
2022-10-01T06:30:40.125Z,97509.00
2022-10-01T06:33:10.860Z,97511.00
2022-10-01T06:35:43.778Z,97522.00
2022-10-01T06:38:12.403Z,97517.00
2022-10-01T06:40:41.465Z,97509.00
2022-10-01T06:43:11.042Z,97517.00
2022-10-01T06:45:42.441Z,97512.00
2022-10-01T06:48:14.883Z,97514.00
2022-10-01T06:50:44.120Z,97504.00
2022-10-01T06:53:13.115Z,97510.00
2022-10-01T06:55:41.700Z,97514.00
2022-10-01T06:58:15.543Z,97505.00
2022-10-01T07:00:43.991Z,97514.00
2022-10-01T07:03:16.662Z,97504.00
2022-10-01T07:05:44.621Z,97512.00
2022-10-01T07:08:13.026Z,97512.00
2022-10-01T07:10:41.296Z,97496.00
2022-10-01T07:13:14.090Z,97499.00
2022-10-01T07:15:42.136Z,97503.00
2022-10-01T07:18:10.463Z,97512.00
2022-10-01T07:20:40.607Z,97505.00
2022-10-01T07:23:12.335Z,97509.00
2022-10-01T07:25:41.601Z,97499.00
2022-10-01T07:28:18.340Z,97495.00
2022-10-01T07:30:48.908Z,97501.00
2022-10-01T07:33:19.836Z,97498.00
2022-10-01T07:35:48.132Z,97500.00
2022-10-01T07:38:16.130Z,97499.00
2022-10-01T07:40:43.890Z,97503.00
2022-10-01T07:43:14.615Z,97510.00
2022-10-01T07:45:42.615Z,97500.00
2022-10-01T07:48:10.353Z,97504.00
2022-10-01T07:50:38.323Z,97505.00
2022-10-01T07:53:06.096Z,97495.00
2022-10-01T07:55:34.209Z,97509.00
2022-10-01T07:58:02.176Z,97513.00
2022-10-01T08:00:36.045Z,97513.00
2022-10-01T08:03:03.856Z,97520.00
2022-10-01T08:05:34.479Z,97518.00
2022-10-01T08:08:05.401Z,97511.00
2022-10-01T08:10:35.971Z,97516.00
2022-10-01T08:13:14.214Z,97519.00
2022-10-01T08:15:44.653Z,97523.00
2022-10-01T08:18:13.168Z,97521.00
2022-10-01T08:20:41.262Z,97521.00
2022-10-01T08:23:12.477Z,97521.00
2022-10-01T08:25:40.970Z,97522.00
2022-10-01T08:28:11.034Z,97518.00
2022-10-01T08:30:41.516Z,97517.00
2022-10-01T08:33:13.423Z,97512.00
2022-10-01T08:35:43.518Z,97513.00
2022-10-01T08:38:13.338Z,97514.00
2022-10-01T08:40:47.638Z,97505.00
2022-10-01T08:43:31.696Z,97502.00
2022-10-01T08:46:04.603Z,97495.00
2022-10-01T08:48:49.487Z,97504.00
2022-10-01T08:51:28.628Z,97502.00
2022-10-01T08:54:05.020Z,97493.00
2022-10-01T08:56:38.879Z,97490.00
2022-10-01T08:59:27.341Z,97483.00
2022-10-01T09:01:56.173Z,97476.00
2022-10-01T09:04:25.447Z,97484.00
2022-10-01T09:07:03.135Z,97483.00
2022-10-01T09:09:45.332Z,97485.00
2022-10-01T09:12:32.222Z,97478.00
2022-10-01T09:15:16.766Z,97462.00
2022-10-01T09:17:58.146Z,97458.00
2022-10-01T09:20:36.252Z,97456.00
2022-10-01T09:23:20.108Z,97451.00
2022-10-01T09:25:51.513Z,97462.00
2022-10-01T09:28:23.480Z,97437.00
2022-10-01T09:30:58.138Z,97437.00
2022-10-01T09:33:32.707Z,97435.00
2022-10-01T09:36:16.526Z,97433.00
2022-10-01T09:38:49.244Z,97431.00
2022-10-01T09:41:17.608Z,97425.00
2022-10-01T09:43:45.858Z,97428.00
2022-10-01T09:46:18.123Z,97421.00
2022-10-01T09:48:58.116Z,97415.00
2022-10-01T09:51:39.423Z,97412.00
2022-10-01T09:54:16.903Z,97415.00
2022-10-01T09:56:54.089Z,97416.00
2022-10-01T09:59:33.068Z,97401.00
2022-10-01T10:02:05.989Z,97404.00
2022-10-01T10:04:33.783Z,97398.00
2022-10-01T10:07:06.113Z,97394.00
2022-10-01T10:09:36.803Z,97397.00
2022-10-01T10:12:10.504Z,97396.00
2022-10-01T10:14:41.352Z,97387.00
2022-10-01T10:17:16.651Z,97385.00
2022-10-01T10:19:51.525Z,97385.00
2022-10-01T10:22:24.833Z,97402.00
2022-10-01T10:24:53.921Z,97388.00
2022-10-01T10:27:27.439Z,97393.00
2022-10-01T10:30:08.667Z,97387.00
2022-10-01T10:32:36.799Z,97392.00
2022-10-01T10:35:15.083Z,97398.00
2022-10-01T10:37:51.902Z,97391.00
2022-10-01T10:40:29.256Z,97398.00
2022-10-01T10:43:00.107Z,97387.00
2022-10-01T10:45:35.552Z,97382.00
2022-10-01T10:48:06.643Z,97379.00
2022-10-01T10:50:39.431Z,97385.00
2022-10-01T10:53:22.215Z,97389.00
2022-10-01T10:55:56.623Z,97395.00
2022-10-01T10:58:28.719Z,97391.00
2022-10-01T11:01:00.953Z,97386.00
2022-10-01T11:03:32.733Z,97391.00
2022-10-01T11:06:11.302Z,97380.00
2022-10-01T11:08:40.982Z,97376.00
2022-10-01T11:11:32.297Z,97377.00
2022-10-01T11:14:21.378Z,97369.00
2022-10-01T11:17:06.142Z,97364.00
2022-10-01T11:20:03.814Z,97362.00
2022-10-01T11:22:52.467Z,97350.00
2022-10-01T11:25:40.281Z,97354.00
2022-10-01T11:28:26.916Z,97359.00
2022-10-01T11:31:06.340Z,97371.00
2022-10-01T11:33:47.936Z,97370.00
2022-10-01T11:36:29.492Z,97382.00
2022-10-01T11:39:02.704Z,97377.00
2022-10-01T11:41:38.276Z,97380.00
2022-10-01T11:44:15.383Z,97382.00
2022-10-01T11:46:53.463Z,97377.00
2022-10-01T11:49:48.700Z,97385.00
2022-10-01T11:52:28.303Z,97376.00
2022-10-01T11:55:30.847Z,97374.00
2022-10-01T11:58:25.540Z,97378.00
2022-10-01T12:01:06.684Z,97365.00
2022-10-01T12:03:50.747Z,97372.00
2022-10-01T12:06:26.091Z,97372.00
2022-10-01T12:09:06.668Z,97372.00
2022-10-01T12:11:43.495Z,97380.00
2022-10-01T12:14:20.792Z,97380.00
2022-10-01T12:16:56.976Z,97383.00
2022-10-01T12:19:30.688Z,97380.00
2022-10-01T12:22:08.049Z,97379.00
2022-10-01T12:24:42.433Z,97372.00
2022-10-01T12:27:33.401Z,97373.00
2022-10-01T12:30:09.142Z,97377.00
2022-10-01T12:32:52.767Z,97364.00
2022-10-01T12:35:38.929Z,97377.00
2022-10-01T12:38:24.891Z,97377.00
2022-10-01T12:41:05.463Z,97381.00
2022-10-01T12:43:58.366Z,97376.00
2022-10-01T12:46:42.911Z,97379.00
2022-10-01T12:49:26.701Z,97381.00
2022-10-01T12:52:05.499Z,97380.00
2022-10-01T12:54:59.882Z,97377.00
2022-10-01T12:57:45.802Z,97372.00
2022-10-01T13:00:19.768Z,97379.00
2022-10-01T13:03:38.163Z,97388.00
2022-10-01T13:06:25.330Z,97388.00
2022-10-01T13:09:06.190Z,97386.00
2022-10-01T13:12:07.370Z,97397.00
2022-10-01T13:14:35.659Z,97407.00
2022-10-01T13:17:12.747Z,97407.00
2022-10-01T13:19:51.174Z,97412.00
2022-10-01T13:22:35.268Z,97413.00
2022-10-01T13:25:23.546Z,97421.00
2022-10-01T13:28:01.128Z,97413.00
2022-10-01T13:30:46.284Z,97412.00
2022-10-01T13:33:27.091Z,97412.00
2022-10-01T13:35:58.430Z,97412.00
2022-10-01T13:38:42.499Z,97417.00
2022-10-01T13:41:22.135Z,97403.00
2022-10-01T13:43:56.815Z,97404.00
2022-10-01T13:46:31.181Z,97406.00
2022-10-01T13:49:08.189Z,97414.00
2022-10-01T13:51:38.315Z,97412.00
2022-10-01T13:54:23.409Z,97419.00
2022-10-01T13:56:51.164Z,97419.00
2022-10-01T13:59:33.633Z,97409.00
2022-10-01T14:02:02.669Z,97423.00
2022-10-01T14:04:39.610Z,97415.00
2022-10-01T14:07:19.430Z,97423.00
2022-10-01T14:09:53.080Z,97421.00
2022-10-01T14:12:43.841Z,97417.00
2022-10-01T14:15:52.213Z,97424.00
2022-10-01T14:18:24.358Z,97416.00
2022-10-01T14:21:07.499Z,97413.00
2022-10-01T14:23:44.610Z,97413.00
2022-10-01T14:26:26.458Z,97411.00
2022-10-01T14:29:11.041Z,97413.00
2022-10-01T14:31:53.922Z,97412.00
2022-10-01T14:34:52.292Z,97412.00
2022-10-01T14:37:21.029Z,97410.00
2022-10-01T14:40:02.744Z,97427.00
2022-10-01T14:42:31.830Z,97422.00
2022-10-01T14:44:59.745Z,97420.00
2022-10-01T14:47:34.904Z,97425.00
2022-10-01T14:50:11.946Z,97431.00
2022-10-01T14:52:51.438Z,97431.00
2022-10-01T14:55:24.122Z,97421.00
2022-10-01T14:57:56.280Z,97431.00
2022-10-01T15:00:28.224Z,97434.00
2022-10-01T15:03:12.595Z,97428.00
2022-10-01T15:05:40.389Z,97431.00
2022-10-01T15:08:13.904Z,97435.00
2022-10-01T15:10:47.280Z,97425.00
2022-10-01T15:13:25.279Z,97432.00
2022-10-01T15:15:54.538Z,97435.00
2022-10-01T15:18:24.866Z,97433.00
2022-10-01T15:20:59.535Z,97433.00
2022-10-01T15:23:30.254Z,97432.00
2022-10-01T15:26:01.484Z,97447.00
2022-10-01T15:28:33.828Z,97443.00
2022-10-01T15:31:03.642Z,97435.00
2022-10-01T15:33:34.735Z,97441.00
2022-10-01T15:36:06.748Z,97443.00
2022-10-01T15:38:36.109Z,97444.00
2022-10-01T15:41:29.884Z,97454.00
2022-10-01T15:43:59.629Z,97447.00
2022-10-01T15:46:32.633Z,97447.00
2022-10-01T15:49:18.937Z,97448.00
2022-10-01T15:52:17.441Z,97453.00
2022-10-01T15:54:47.405Z,97462.00
2022-10-01T15:57:22.422Z,97460.00
2022-10-01T15:59:56.058Z,97464.00
2022-10-01T16:02:29.056Z,97469.00
2022-10-01T16:05:06.335Z,97467.00
2022-10-01T16:07:34.774Z,97473.00
2022-10-01T16:10:30.542Z,97478.00
2022-10-01T16:12:58.782Z,97485.00
2022-10-01T16:15:30.301Z,97487.00
2022-10-01T16:17:59.258Z,97481.00
2022-10-01T16:20:38.559Z,97496.00
2022-10-01T16:23:34.698Z,97498.00
2022-10-01T16:26:03.420Z,97500.00
2022-10-01T16:28:33.585Z,97510.00
2022-10-01T16:31:05.677Z,97496.00
2022-10-01T16:33:33.490Z,97505.00
2022-10-01T16:36:10.882Z,97504.00
2022-10-01T16:38:38.638Z,97510.00
2022-10-01T16:41:06.763Z,97512.00
2022-10-01T16:43:34.538Z,97514.00
2022-10-01T16:46:03.669Z,97518.00
2022-10-01T16:48:31.420Z,97519.00
2022-10-01T16:50:59.764Z,97523.00
2022-10-01T16:53:28.278Z,97517.00
2022-10-01T16:55:58.065Z,97528.00
2022-10-01T16:58:27.451Z,97522.00
2022-10-01T17:00:55.225Z,97527.00
2022-10-01T17:03:24.493Z,97526.00
2022-10-01T17:05:52.286Z,97527.00
2022-10-01T17:08:20.031Z,97530.00
2022-10-01T17:10:56.777Z,97536.00
2022-10-01T17:13:25.095Z,97543.00
2022-10-01T17:15:53.190Z,97542.00
2022-10-01T17:18:27.707Z,97541.00
2022-10-01T17:20:56.586Z,97548.00
2022-10-01T17:23:24.923Z,97554.00
2022-10-01T17:25:52.837Z,97555.00
2022-10-01T17:28:21.755Z,97553.00
2022-10-01T17:30:50.544Z,97566.00
2022-10-01T17:33:20.303Z,97568.00
2022-10-01T17:35:54.633Z,97570.00
2022-10-01T17:38:23.728Z,97575.00
2022-10-01T17:40:56.391Z,97581.00
2022-10-01T17:43:24.625Z,97586.00
2022-10-01T17:45:57.678Z,97587.00
2022-10-01T17:48:26.370Z,97589.00
2022-10-01T17:51:03.988Z,97599.00
2022-10-01T17:53:38.242Z,97607.00
2022-10-01T17:56:11.521Z,97609.00
2022-10-01T17:58:44.203Z,97608.00
2022-10-01T18:01:15.883Z,97602.00
2022-10-01T18:03:43.887Z,97607.00
2022-10-01T18:06:15.234Z,97610.00
2022-10-01T18:08:58.416Z,97612.00
2022-10-01T18:11:28.818Z,97603.00
2022-10-01T18:13:57.070Z,97600.00
2022-10-01T18:16:25.688Z,97611.00
2022-10-01T18:21:48.447Z,97617.00
2022-10-01T18:24:17.292Z,97621.00
2022-10-01T18:26:45.742Z,97627.00
2022-10-01T18:29:19.874Z,97629.00
2022-10-01T18:31:52.127Z,97634.00
2022-10-01T18:34:29.523Z,97634.00
2022-10-01T18:37:06.672Z,97640.00
2022-10-01T18:39:40.938Z,97646.00
2022-10-01T18:42:20.044Z,97644.00
2022-10-01T18:44:53.875Z,97636.00
2022-10-01T18:47:35.506Z,97645.00
2022-10-01T18:50:22.403Z,97643.00
2022-10-01T18:53:11.792Z,97649.00
2022-10-01T18:56:07.288Z,97654.00
2022-10-01T18:59:26.384Z,97648.00
2022-10-01T19:02:14.755Z,97658.00
2022-10-01T19:05:05.234Z,97658.00
2022-10-01T19:07:49.412Z,97660.00
2022-10-01T19:10:35.948Z,97658.00
2022-10-01T19:13:22.958Z,97673.00
2022-10-01T19:16:41.101Z,97681.00
2022-10-01T19:20:07.415Z,97678.00
2022-10-01T19:23:22.079Z,97684.00
2022-10-01T19:25:58.459Z,97688.00
2022-10-01T19:28:47.077Z,97702.00
2022-10-01T19:31:23.232Z,97707.00
2022-10-01T19:33:57.689Z,97709.00
2022-10-01T19:36:34.351Z,97714.00
2022-10-01T19:39:10.092Z,97721.00
2022-10-01T19:41:45.291Z,97717.00
2022-10-01T19:44:17.792Z,97727.00
2022-10-01T19:46:48.281Z,97729.00
2022-10-01T19:49:22.324Z,97743.00
2022-10-01T19:51:57.925Z,97730.00
2022-10-01T19:54:33.285Z,97740.00
2022-10-01T19:57:06.728Z,97746.00
2022-10-01T19:59:34.466Z,97748.00
2022-10-01T20:02:10.855Z,97756.00
2022-10-01T20:04:47.251Z,97760.00
2022-10-01T20:07:25.073Z,97762.00
2022-10-01T20:10:05.576Z,97780.00
2022-10-01T20:12:44.848Z,97782.00
2022-10-01T20:15:33.713Z,97799.00
2022-10-01T20:18:27.952Z,97799.00
2022-10-01T20:21:14.959Z,97806.00
2022-10-01T20:23:52.348Z,97807.00
2022-10-01T20:26:31.901Z,97808.00
2022-10-01T20:29:32.954Z,97812.00
2022-10-01T20:32:11.367Z,97821.00
2022-10-01T20:34:55.396Z,97819.00
2022-10-01T20:37:39.555Z,97819.00
2022-10-01T20:40:18.282Z,97821.00
2022-10-01T20:42:51.282Z,97822.00
2022-10-01T20:45:26.610Z,97823.00
2022-10-01T20:48:00.051Z,97826.00
2022-10-01T20:50:34.065Z,97839.00
2022-10-01T20:53:13.794Z,97841.00
2022-10-01T20:55:48.339Z,97848.00
2022-10-01T20:58:23.471Z,97848.00
2022-10-01T21:01:00.616Z,97849.00
2022-10-01T21:03:36.005Z,97864.00
2022-10-01T21:06:11.998Z,97863.00
2022-10-01T21:08:50.086Z,97856.00
2022-10-01T21:11:28.913Z,97872.00
2022-10-01T21:14:06.013Z,97872.00
2022-10-01T21:17:22.984Z,97866.00
2022-10-01T21:20:20.957Z,97874.00
2022-10-01T21:23:12.338Z,97884.00
2022-10-01T21:25:56.910Z,97885.00
2022-10-01T21:29:01.111Z,97894.00
2022-10-01T21:31:44.815Z,97893.00
2022-10-01T21:34:22.672Z,97914.00
2022-10-01T21:37:04.839Z,97925.00
2022-10-01T21:39:38.078Z,97932.00
2022-10-01T21:42:17.055Z,97927.00
2022-10-01T21:45:09.797Z,97930.00
2022-10-01T21:48:00.546Z,97939.00
2022-10-01T21:50:45.501Z,97936.00
2022-10-01T21:53:42.399Z,97942.00
2022-10-01T21:56:38.546Z,97948.00
2022-10-01T21:59:17.867Z,97951.00
2022-10-01T22:02:05.880Z,97958.00
2022-10-01T22:04:43.191Z,97968.00
2022-10-01T22:07:23.980Z,97966.00
2022-10-01T22:10:08.951Z,97966.00
2022-10-01T22:12:41.955Z,97967.00
2022-10-01T22:15:24.310Z,97974.00
2022-10-01T22:17:55.766Z,97976.00
2022-10-01T22:20:28.916Z,97978.00
2022-10-01T22:23:02.299Z,97986.00
2022-10-01T22:25:32.855Z,97989.00
2022-10-01T22:28:05.925Z,97988.00
2022-10-01T22:30:39.669Z,97993.00
2022-10-01T22:33:13.196Z,97990.00
2022-10-01T22:35:49.815Z,97993.00
2022-10-01T22:38:24.902Z,98001.00
2022-10-01T22:41:02.085Z,97995.00
2022-10-01T22:43:30.120Z,98003.00
2022-10-01T22:46:32.345Z,98010.00
2022-10-01T22:49:07.133Z,98010.00
2022-10-01T22:51:52.645Z,98014.00
2022-10-01T22:54:39.550Z,98023.00
2022-10-01T22:57:25.187Z,98015.00
2022-10-01T23:00:05.352Z,98024.00
2022-10-01T23:02:41.148Z,98028.00
2022-10-01T23:05:30.299Z,98024.00
2022-10-01T23:08:10.609Z,98029.00
2022-10-01T23:10:52.717Z,98030.00
2022-10-01T23:13:29.720Z,98024.00
2022-10-01T23:16:14.871Z,98032.00
2022-10-01T23:19:00.439Z,98032.00
2022-10-01T23:21:40.785Z,98040.00
2022-10-01T23:24:29.311Z,98042.00
2022-10-01T23:27:13.700Z,98044.00
2022-10-01T23:30:01.245Z,98045.00
2022-10-01T23:33:03.699Z,98047.00
2022-10-01T23:35:50.426Z,98056.00
2022-10-01T23:38:43.578Z,98049.00
2022-10-01T23:41:21.783Z,98056.00
2022-10-01T23:43:54.465Z,98059.00
2022-10-01T23:46:28.440Z,98052.00
2022-10-01T23:49:04.989Z,98059.00
2022-10-01T23:51:40.745Z,98065.00
2022-10-01T23:54:19.664Z,98072.00
2022-10-01T23:56:54.592Z,98088.00
2022-10-01T23:59:35.332Z,98083.00
